VIA003 SVMI-SVBM
Flight info
| Callsign | VIA003 |
|---|---|
| Flight time | 0h 39m |
| Altitude | 24000 |
| Route | MARES1 MARES A315 ATONO G427 PBL W9 UGOSI |
| Aircraft | B738/M-SDE2E3FGHIRWXY/LB1 |
Departure
| Time | 2026-04-17 13:56 |
|---|---|
| Airport | Maiquetía Simón Bolívar International Airport (SVMI) |
Arrival
| Time | 2026-04-17 14:35 |
|---|---|
| Airport | Jacinto Lara International Airport (SVBM) |
| Time | Latitude | Longitude | Altitude | Speed | Heading |
|---|---|---|---|---|---|
| 2026-04-17 13:40 | 10.59810 | -67.00976 | 312 ft | 0 kts | 177° |
| 2026-04-17 13:49 | 10.59813 | -67.00977 | 313 ft | 2 kts | 177° |
| 2026-04-17 13:49 | 10.59828 | -67.00977 | 313 ft | 2 kts | 178° |
| 2026-04-17 13:50 | 10.59843 | -67.00977 | 312 ft | 2 kts | 178° |
| 2026-04-17 13:50 | 10.59858 | -67.00978 | 312 ft | 2 kts | 178° |
| 2026-04-17 13:50 | 10.59873 | -67.00979 | 312 ft | 2 kts | 178° |
| 2026-04-17 13:50 | 10.59888 | -67.00980 | 311 ft | 2 kts | 178° |
| 2026-04-17 13:51 | 10.59900 | -67.00974 | 311 ft | 2 kts | 243° |
| 2026-04-17 13:51 | 10.59902 | -67.00966 | 311 ft | 0 kts | 273° |
| 2026-04-17 13:51 | 10.59902 | -67.00960 | 312 ft | 0 kts | 268° |
| 2026-04-17 13:53 | 10.59902 | -67.00965 | 312 ft | 2 kts | 268° |
| 2026-04-17 13:53 | 10.59900 | -67.01005 | 311 ft | 8 kts | 268° |
| 2026-04-17 13:53 | 10.59898 | -67.01084 | 308 ft | 14 kts | 268° |
| 2026-04-17 13:54 | 10.59956 | -67.01239 | 302 ft | 14 kts | 343° |
| 2026-04-17 13:54 | 10.60071 | -67.01251 | 301 ft | 17 kts | 358° |
| 2026-04-17 13:55 | 10.60213 | -67.01192 | 304 ft | 10 kts | 89° |
| 2026-04-17 13:55 | 10.60213 | -67.01176 | 305 ft | 10 kts | 89° |
| 2026-04-17 13:55 | 10.60255 | -66.99926 | 316 ft | 157 kts | 87° |
| 2026-04-17 13:56 | 10.60393 | -66.97528 | 1701 ft | 182 kts | 83° |
| 2026-04-17 13:56 | 10.60859 | -66.96316 | 2350 ft | 197 kts | 49° |
| 2026-04-17 13:56 | 10.62111 | -66.95634 | 2899 ft | 219 kts | 11° |
| 2026-04-17 13:57 | 10.63712 | -66.95745 | 3446 ft | 243 kts | 345° |
| 2026-04-17 13:57 | 10.65222 | -66.96609 | 3963 ft | 266 kts | 319° |
| 2026-04-17 13:57 | 10.66765 | -67.00153 | 4068 ft | 283 kts | 279° |
| 2026-04-17 13:58 | 10.67037 | -67.02125 | 4054 ft | 282 kts | 278° |
| 2026-04-17 13:58 | 10.67621 | -67.05975 | 4252 ft | 270 kts | 282° |
| 2026-04-17 13:58 | 10.68169 | -67.07806 | 4748 ft | 272 kts | 298° |
| 2026-04-17 13:59 | 10.70488 | -67.10875 | 6187 ft | 278 kts | 313° |
| 2026-04-17 13:59 | 10.71749 | -67.12334 | 6877 ft | 280 kts | 312° |
| 2026-04-17 13:59 | 10.73009 | -67.13846 | 7580 ft | 281 kts | 311° |
| 2026-04-17 14:00 | 10.74248 | -67.15379 | 8285 ft | 282 kts | 310° |
| 2026-04-17 14:00 | 10.75496 | -67.16947 | 9022 ft | 285 kts | 310° |
| 2026-04-17 14:00 | 10.76733 | -67.18512 | 9752 ft | 289 kts | 310° |
| 2026-04-17 14:00 | 10.77980 | -67.20090 | 10467 ft | 289 kts | 310° |
| 2026-04-17 14:01 | 10.79243 | -67.21691 | 11192 ft | 290 kts | 309° |
| 2026-04-17 14:01 | 10.80471 | -67.23305 | 11900 ft | 291 kts | 308° |
| 2026-04-17 14:01 | 10.81693 | -67.24960 | 12608 ft | 292 kts | 308° |
| 2026-04-17 14:01 | 10.82893 | -67.26595 | 13329 ft | 292 kts | 308° |
| 2026-04-17 14:02 | 10.84109 | -67.28244 | 14053 ft | 295 kts | 307° |
| 2026-04-17 14:02 | 10.85348 | -67.29916 | 14759 ft | 296 kts | 307° |
| 2026-04-17 14:02 | 10.86596 | -67.31596 | 15455 ft | 298 kts | 307° |
| 2026-04-17 14:02 | 10.87841 | -67.33269 | 16138 ft | 299 kts | 306° |
| 2026-04-17 14:03 | 10.89095 | -67.34954 | 16691 ft | 305 kts | 306° |
| 2026-04-17 14:03 | 10.90403 | -67.36714 | 17039 ft | 319 kts | 306° |
| 2026-04-17 14:03 | 10.91770 | -67.38557 | 17346 ft | 333 kts | 306° |
| 2026-04-17 14:03 | 10.93187 | -67.40468 | 17663 ft | 346 kts | 305° |
| 2026-04-17 14:04 | 10.94538 | -67.42569 | 17893 ft | 360 kts | 296° |
| 2026-04-17 14:04 | 10.95440 | -67.44955 | 18134 ft | 371 kts | 282° |
| 2026-04-17 14:04 | 10.95704 | -67.47606 | 18671 ft | 374 kts | 269° |
| 2026-04-17 14:04 | 10.95477 | -67.50216 | 19257 ft | 377 kts | 261° |
| 2026-04-17 14:05 | 10.94823 | -67.52795 | 19854 ft | 379 kts | 250° |
| 2026-04-17 14:05 | 10.93689 | -67.55224 | 20467 ft | 381 kts | 240° |
| 2026-04-17 14:05 | 10.92142 | -67.57401 | 21100 ft | 383 kts | 232° |
| 2026-04-17 14:05 | 10.90334 | -67.59442 | 21689 ft | 385 kts | 229° |
| 2026-04-17 14:06 | 10.88490 | -67.61383 | 22135 ft | 390 kts | 228° |
| 2026-04-17 14:06 | 10.86604 | -67.63371 | 22778 ft | 388 kts | 228° |
| 2026-04-17 14:06 | 10.84733 | -67.65390 | 23309 ft | 390 kts | 229° |
| 2026-04-17 14:06 | 10.82898 | -67.67429 | 23763 ft | 394 kts | 229° |
| 2026-04-17 14:07 | 10.81043 | -67.69538 | 23883 ft | 397 kts | 230° |
| 2026-04-17 14:07 | 10.79226 | -67.71635 | 23902 ft | 394 kts | 230° |
| 2026-04-17 14:07 | 10.77429 | -67.73728 | 23905 ft | 394 kts | 230° |
| 2026-04-17 14:07 | 10.75628 | -67.75837 | 23906 ft | 395 kts | 230° |
| 2026-04-17 14:08 | 10.73831 | -67.77947 | 23910 ft | 394 kts | 230° |
| 2026-04-17 14:08 | 10.72022 | -67.80074 | 23915 ft | 396 kts | 230° |
| 2026-04-17 14:08 | 10.70216 | -67.82196 | 23910 ft | 395 kts | 230° |
| 2026-04-17 14:08 | 10.68427 | -67.84296 | 23912 ft | 394 kts | 230° |
| 2026-04-17 14:09 | 10.66631 | -67.86406 | 23914 ft | 395 kts | 230° |
| 2026-04-17 14:09 | 10.64821 | -67.88532 | 23913 ft | 396 kts | 230° |
| 2026-04-17 14:09 | 10.63030 | -67.90633 | 23911 ft | 396 kts | 230° |
| 2026-04-17 14:09 | 10.61212 | -67.92764 | 23912 ft | 395 kts | 230° |
| 2026-04-17 14:10 | 10.59417 | -67.94871 | 23917 ft | 396 kts | 230° |
| 2026-04-17 14:10 | 10.57612 | -67.96989 | 23915 ft | 394 kts | 230° |
| 2026-04-17 14:10 | 10.55811 | -67.99103 | 23916 ft | 396 kts | 230° |
| 2026-04-17 14:10 | 10.54021 | -68.01202 | 23915 ft | 395 kts | 230° |
| 2026-04-17 14:11 | 10.52220 | -68.03314 | 23915 ft | 395 kts | 230° |
| 2026-04-17 14:11 | 10.50513 | -68.05484 | 23914 ft | 394 kts | 236° |
| 2026-04-17 14:11 | 10.49131 | -68.07882 | 23919 ft | 394 kts | 244° |
| 2026-04-17 14:11 | 10.48151 | -68.10499 | 23930 ft | 396 kts | 253° |
| 2026-04-17 14:12 | 10.47498 | -68.13233 | 23934 ft | 397 kts | 257° |
| 2026-04-17 14:12 | 10.47006 | -68.15974 | 23940 ft | 399 kts | 259° |
| 2026-04-17 14:12 | 10.46573 | -68.18774 | 23946 ft | 398 kts | 260° |
| 2026-04-17 14:13 | 10.45757 | -68.24336 | 23958 ft | 399 kts | 260° |
| 2026-04-17 14:13 | 10.45345 | -68.27113 | 23957 ft | 397 kts | 260° |
| 2026-04-17 14:13 | 10.44931 | -68.29874 | 23963 ft | 397 kts | 259° |
| 2026-04-17 14:13 | 10.44509 | -68.32630 | 23960 ft | 397 kts | 259° |
| 2026-04-17 14:14 | 10.44079 | -68.35419 | 23969 ft | 399 kts | 259° |
| 2026-04-17 14:14 | 10.43648 | -68.38191 | 23968 ft | 398 kts | 259° |
| 2026-04-17 14:14 | 10.43214 | -68.40961 | 23969 ft | 397 kts | 259° |
| 2026-04-17 14:14 | 10.42780 | -68.43713 | 23973 ft | 399 kts | 259° |
| 2026-04-17 14:15 | 10.42340 | -68.46503 | 23970 ft | 396 kts | 259° |
| 2026-04-17 14:15 | 10.41906 | -68.49249 | 23970 ft | 396 kts | 259° |
| 2026-04-17 14:15 | 10.41465 | -68.52027 | 23971 ft | 397 kts | 259° |
| 2026-04-17 14:15 | 10.41029 | -68.54776 | 23972 ft | 396 kts | 259° |
| 2026-04-17 14:16 | 10.40587 | -68.57561 | 23976 ft | 398 kts | 259° |
| 2026-04-17 14:16 | 10.40154 | -68.60292 | 23977 ft | 397 kts | 259° |
| 2026-04-17 14:16 | 10.39711 | -68.63083 | 23980 ft | 399 kts | 259° |
| 2026-04-17 14:16 | 10.39272 | -68.65847 | 23882 ft | 400 kts | 259° |
| 2026-04-17 14:17 | 10.38830 | -68.68633 | 23637 ft | 398 kts | 259° |
| 2026-04-17 14:17 | 10.38399 | -68.71388 | 23393 ft | 394 kts | 259° |
| 2026-04-17 14:17 | 10.37988 | -68.74142 | 23151 ft | 394 kts | 260° |
| 2026-04-17 14:17 | 10.37593 | -68.76882 | 22909 ft | 393 kts | 260° |
| 2026-04-17 14:18 | 10.37199 | -68.79633 | 22672 ft | 392 kts | 260° |
| 2026-04-17 14:18 | 10.36807 | -68.82368 | 22419 ft | 393 kts | 260° |
| 2026-04-17 14:18 | 10.36413 | -68.85104 | 22019 ft | 391 kts | 260° |
| 2026-04-17 14:18 | 10.36018 | -68.87837 | 21490 ft | 388 kts | 261° |
| 2026-04-17 14:19 | 10.35625 | -68.90545 | 20924 ft | 387 kts | 261° |
| 2026-04-17 14:19 | 10.35237 | -68.93213 | 20351 ft | 386 kts | 261° |
| 2026-04-17 14:19 | 10.34841 | -68.95926 | 19763 ft | 385 kts | 261° |
| 2026-04-17 14:19 | 10.34454 | -68.98583 | 19173 ft | 384 kts | 261° |
| 2026-04-17 14:20 | 10.34061 | -69.01269 | 18584 ft | 382 kts | 262° |
| 2026-04-17 14:20 | 10.33677 | -69.03899 | 17984 ft | 381 kts | 262° |
| 2026-04-17 14:20 | 10.33291 | -69.06538 | 17382 ft | 379 kts | 262° |
| 2026-04-17 14:20 | 10.32900 | -69.09210 | 16763 ft | 378 kts | 262° |
| 2026-04-17 14:21 | 10.32507 | -69.11821 | 16140 ft | 377 kts | 262° |
| 2026-04-17 14:21 | 10.32102 | -69.14464 | 15523 ft | 376 kts | 262° |
| 2026-04-17 14:21 | 10.31701 | -69.17050 | 14897 ft | 371 kts | 262° |
| 2026-04-17 14:21 | 10.31306 | -69.19582 | 14312 ft | 361 kts | 262° |
| 2026-04-17 14:22 | 10.30919 | -69.22069 | 13740 ft | 355 kts | 262° |
| 2026-04-17 14:22 | 10.30537 | -69.24529 | 13154 ft | 350 kts | 262° |
| 2026-04-17 14:22 | 10.30162 | -69.26960 | 12583 ft | 345 kts | 262° |
| 2026-04-17 14:22 | 10.29795 | -69.29337 | 12095 ft | 339 kts | 262° |
| 2026-04-17 14:23 | 10.29440 | -69.31633 | 11855 ft | 324 kts | 262° |
| 2026-04-17 14:23 | 10.29099 | -69.33841 | 11608 ft | 311 kts | 262° |
| 2026-04-17 14:23 | 10.28771 | -69.35966 | 11420 ft | 297 kts | 262° |
| 2026-04-17 14:23 | 10.28455 | -69.38017 | 11150 ft | 288 kts | 262° |
| 2026-04-17 14:24 | 10.28067 | -69.40015 | 10617 ft | 291 kts | 255° |
| 2026-04-17 14:24 | 10.27182 | -69.41836 | 10106 ft | 292 kts | 230° |
| 2026-04-17 14:24 | 10.25723 | -69.43256 | 9653 ft | 291 kts | 219° |
| 2026-04-17 14:24 | 10.24135 | -69.44520 | 9229 ft | 289 kts | 218° |
| 2026-04-17 14:25 | 10.22569 | -69.45753 | 9004 ft | 276 kts | 218° |
| 2026-04-17 14:25 | 10.21111 | -69.46944 | 8871 ft | 259 kts | 219° |
| 2026-04-17 14:25 | 10.19778 | -69.48066 | 8716 ft | 244 kts | 220° |
| 2026-04-17 14:25 | 10.18525 | -69.49136 | 8608 ft | 226 kts | 220° |
| 2026-04-17 14:26 | 10.17353 | -69.50145 | 8402 ft | 214 kts | 220° |
| 2026-04-17 14:26 | 10.16245 | -69.51099 | 8255 ft | 199 kts | 219° |
| 2026-04-17 14:26 | 10.15223 | -69.51978 | 8050 ft | 189 kts | 219° |
| 2026-04-17 14:26 | 10.14212 | -69.52846 | 7641 ft | 191 kts | 219° |
| 2026-04-17 14:27 | 10.13196 | -69.53714 | 7291 ft | 189 kts | 219° |
| 2026-04-17 14:27 | 10.12200 | -69.54564 | 6985 ft | 184 kts | 219° |
| 2026-04-17 14:27 | 10.11263 | -69.55363 | 6822 ft | 170 kts | 218° |
| 2026-04-17 14:27 | 10.10345 | -69.56140 | 6428 ft | 173 kts | 218° |
| 2026-04-17 14:28 | 10.09420 | -69.56912 | 6088 ft | 172 kts | 218° |
| 2026-04-17 14:28 | 10.08498 | -69.57695 | 5739 ft | 172 kts | 218° |
| 2026-04-17 14:28 | 10.07590 | -69.58465 | 5386 ft | 172 kts | 216° |
| 2026-04-17 14:28 | 10.06543 | -69.59010 | 5023 ft | 169 kts | 188° |
| 2026-04-17 14:29 | 10.05405 | -69.58913 | 4673 ft | 164 kts | 159° |
| 2026-04-17 14:29 | 10.04358 | -69.58468 | 4500 ft | 158 kts | 154° |
| 2026-04-17 14:29 | 10.03341 | -69.58009 | 4525 ft | 163 kts | 154° |
| 2026-04-17 14:29 | 10.02294 | -69.57536 | 4523 ft | 163 kts | 150° |
| 2026-04-17 14:30 | 10.01465 | -69.56792 | 4516 ft | 160 kts | 113° |
| 2026-04-17 14:30 | 10.01361 | -69.55706 | 4546 ft | 158 kts | 79° |
| 2026-04-17 14:30 | 10.01590 | -69.54617 | 4521 ft | 156 kts | 83° |
| 2026-04-17 14:30 | 10.01599 | -69.53507 | 4530 ft | 156 kts | 90° |
| 2026-04-17 14:31 | 10.01696 | -69.52406 | 4539 ft | 156 kts | 81° |
| 2026-04-17 14:31 | 10.01871 | -69.51328 | 4537 ft | 158 kts | 81° |
| 2026-04-17 14:31 | 10.02036 | -69.50249 | 4507 ft | 149 kts | 82° |
| 2026-04-17 14:31 | 10.02195 | -69.49199 | 4505 ft | 153 kts | 81° |
| 2026-04-17 14:32 | 10.02366 | -69.48119 | 4329 ft | 156 kts | 81° |
| 2026-04-17 14:32 | 10.02535 | -69.47022 | 4072 ft | 159 kts | 81° |
| 2026-04-17 14:32 | 10.02707 | -69.45916 | 3849 ft | 160 kts | 81° |
| 2026-04-17 14:32 | 10.02880 | -69.44808 | 3625 ft | 158 kts | 81° |
| 2026-04-17 14:33 | 10.03050 | -69.43713 | 3410 ft | 154 kts | 81° |
| 2026-04-17 14:33 | 10.03216 | -69.42649 | 3184 ft | 152 kts | 81° |
| 2026-04-17 14:33 | 10.03379 | -69.41599 | 2982 ft | 150 kts | 81° |
| 2026-04-17 14:33 | 10.03540 | -69.40554 | 2774 ft | 150 kts | 81° |
| 2026-04-17 14:34 | 10.03705 | -69.39506 | 2562 ft | 150 kts | 80° |
| 2026-04-17 14:34 | 10.03865 | -69.38454 | 2331 ft | 151 kts | 81° |
| 2026-04-17 14:34 | 10.04020 | -69.37405 | 2129 ft | 151 kts | 81° |
| 2026-04-17 14:34 | 10.04174 | -69.36376 | 2062 ft | 144 kts | 81° |
| 2026-04-17 14:35 | 10.04322 | -69.35417 | 2055 ft | 113 kts | 81° |
| 2026-04-17 14:35 | 10.04405 | -69.34900 | 2055 ft | 48 kts | 79° |
| 2026-04-17 14:35 | 10.04442 | -69.34670 | 2054 ft | 23 kts | 79° |
| 2026-04-17 14:35 | 10.04565 | -69.34610 | 2054 ft | 19 kts | 342° |
| 2026-04-17 14:36 | 10.04611 | -69.34725 | 2055 ft | 20 kts | 262° |
| 2026-04-17 14:36 | 10.04588 | -69.34869 | 2055 ft | 21 kts | 259° |
| 2026-04-17 14:36 | 10.04564 | -69.35020 | 2055 ft | 21 kts | 262° |
| 2026-04-17 14:36 | 10.04540 | -69.35175 | 2055 ft | 22 kts | 260° |
| 2026-04-17 14:37 | 10.04513 | -69.35337 | 2055 ft | 23 kts | 261° |
| 2026-04-17 14:37 | 10.04488 | -69.35502 | 2055 ft | 24 kts | 261° |
| 2026-04-17 14:37 | 10.04461 | -69.35676 | 2055 ft | 25 kts | 261° |
| 2026-04-17 14:37 | 10.04435 | -69.35833 | 2055 ft | 18 kts | 261° |
| 2026-04-17 14:38 | 10.04467 | -69.35904 | 2055 ft | 11 kts | 342° |
| 2026-04-17 14:38 | 10.04523 | -69.35913 | 2055 ft | 4 kts | 351° |
| 2026-04-17 14:38 | 10.04539 | -69.35916 | 2055 ft | 1 kts | 351° |
| 2026-04-17 14:38 | 10.04540 | -69.35916 | 2055 ft | 0 kts | 351° |